View Report

Flight Details
Flight Number
WW8895 - Operated by Worldwide Virtual
Date Wednesday, 13 June 2018
Depart ESSA - Stockholm-Arlanda Airport
Arrive LPMA - Madeira Airport
Aircraft WW-A332
Flight Time 05:42:00
Distance 2120 NM
Landing Rate -203 fpm
Passengers 206
Cargo 12876 kg
Fuel Used 0 kg
Revenue W$ 964091.19
Expenses W$ 0.00
Net Income W$ 964091.19
Status Approved
Flight Log
Comments
Date
Pilot
Comment
13/06/2018 4:19:25 PMWW3335 Lyes GaridiRNAV 05-Z LPMA 131600Z 02015KT 330V050 9999 SCT016 SCT030 20/13 Q1024
Flight Map
Powered By Subgurim(http://en.googlemaps.subgurim.net).Google Maps ASP.NET
Powered by ASP Virtual Airline Management System 2015.08.31 Version 1.0.0.0 | © 2011-2018 Worldwide Virtual.
This website has no official affiliation with any of the airlines featured and is a non-profit organisation supporting the flight simulator hobby. All logos and trademarks remain the property of their respective airlines. All other images remain the property of their respective owners.